KIRS

Kirsch Municipal Airport

Sturgis, Michigan, USA
METAR KIRS 230755Z AUTO 12010G17KT 5SM BR OVC005 02/01 A3027 RMK AO2 T00170011
Observed Flight Rules
Feb-23 @ 07:55 UTC (14 minutes ago) Instrument Flight Rules
Wind Visibility Clouds Conditions
120° at 10 knots
 Gusting to 17 knots
5 miles
  • Overcast at 500' AGL
  • Mist
Temperatures Readings
Current 2°C / 36°F
Dewpoint 1°C / 34°F
Humidity 93%
Altimeter 30.27" Hg
Pressure 1025 hPa
Elevation 282
METAR KIRS 230755Z AUTO 12010G17KT 5SM BR OVC005 02/01 A3027 RMK AO2 T00170011
Observed Flight Rules
Feb-23 @ 07:55 UTC
(14 minutes ago)
IFR
Wind Visibility
120° at 10 knots
 Gusting to 17 knots
5 miles
Clouds
  • Overcast at 500' AGL
Conditions
  • Mist
Temperature Dewpoint
2°C / 36°F 1°C / 34°F
Humidity Altimeter Pressure
93% 30.27" Hg 1025 hPa